Time;durP1;ratioP1;P1;durP2;ratioP2;P2;SDS_P1;SDS_P2;PMS_P1;PMS_P2;Temp;Humidity;BMP_temperature;BMP_pressure;BME280_temperature;BME280_humidity;BME280_pressure;Samples;Min_cycle;Max_cycle;Signal;HPM_P1;HPM_P2
2022/10/23 00:00:15;;;;;;;20.00;10.32;;;;;;;9.07;100.00;101174.09;10340139;28;20124;-79
2022/10/23 00:05:16;;;;;;;20.25;8.30;;;;;;;9.01;100.00;101169.38;10357267;28;20042;-79
2022/10/23 00:10:17;;;;;;;13.73;8.38;;;;;;;8.97;100.00;101170.00;10356025;28;20034;-78
2022/10/23 00:15:19;;;;;;;21.90;8.95;;;;;;;9.07;100.00;101169.75;10340978;28;20430;-78
2022/10/23 00:20:20;;;;;;;30.08;12.95;;;;;;;9.12;100.00;101162.19;10351609;28;20046;-78
2022/10/23 00:25:21;;;;;;;30.40;11.50;;;;;;;9.06;100.00;101161.84;10356455;28;20502;-78
2022/10/23 00:30:21;;;;;;;26.25;12.50;;;;;;;9.07;100.00;101159.31;10357519;28;20045;-78
2022/10/23 00:35:22;;;;;;;87.97;21.00;;;;;;;9.04;100.00;101150.41;10358418;28;20428;-78
2022/10/23 00:40:22;;;;;;;25.83;14.55;;;;;;;8.97;100.00;101154.34;10357515;28;20053;-78
2022/10/23 00:45:27;;;;;;;27.58;15.05;;;;;;;8.80;100.00;101143.81;10356520;28;20327;-78
2022/10/23 00:50:29;;;;;;;28.98;14.63;;;;;;;8.73;100.00;101154.69;10356949;28;20041;-79
2022/10/23 00:55:30;;;;;;;19.17;11.20;;;;;;;8.68;100.00;101145.69;10341036;28;20034;-79
2022/10/23 01:00:41;;;;;;;25.88;12.35;;;;;;;8.59;100.00;101155.56;10316735;28;20040;-79
2022/10/23 01:05:55;;;;;;;33.25;14.20;;;;;;;8.57;100.00;101146.75;10314064;28;20049;-79
2022/10/23 01:11:18;;;;;;;35.88;12.85;;;;;;;8.60;100.00;101144.34;10364489;28;20053;-79
2022/10/23 01:16:49;;;;;;;33.50;17.35;;;;;;;8.58;100.00;101128.59;10363055;28;20112;-79
2022/10/23 01:22:17;;;;;;;43.80;18.02;;;;;;;8.33;100.00;101132.31;10365866;28;20463;-79
2022/10/23 01:27:38;;;;;;;38.58;17.55;;;;;;;8.08;100.00;101127.28;10362314;28;20045;-79
2022/10/23 01:33:20;;;;;;;51.33;17.48;;;;;;;7.90;100.00;101104.47;10379959;28;20430;-79
2022/10/23 01:38:34;;;;;;;46.53;16.58;;;;;;;7.85;100.00;101110.22;10352616;28;20092;-79
2022/10/23 01:43:47;;;;;;;33.92;14.40;;;;;;;7.86;100.00;101106.81;10346967;28;20526;-79
2022/10/23 01:48:50;;;;;;;24.77;12.63;;;;;;;7.86;100.00;101096.38;10345468;28;20042;-78
2022/10/23 01:53:51;;;;;;;33.97;14.00;;;;;;;7.99;100.00;101096.34;10346487;28;20056;-78
2022/10/23 01:58:52;;;;;;;28.27;14.40;;;;;;;8.05;100.00;101091.50;10345485;28;20030;-78
2022/10/23 02:03:53;;;;;;;32.60;13.60;;;;;;;8.04;100.00;101091.41;10346064;28;20042;-79
2022/10/23 02:08:53;;;;;;;31.20;13.77;;;;;;;8.06;100.00;101084.56;10345077;28;20061;-79
2022/10/23 02:13:57;;;;;;;35.92;15.48;;;;;;;8.00;100.00;101089.41;10345191;28;20414;-78
2022/10/23 02:19:22;;;;;;;22.95;13.52;;;;;;;7.94;100.00;101087.34;10361946;28;20100;-78
2022/10/23 02:24:31;;;;;;;39.42;14.13;;;;;;;7.97;100.00;101070.97;10361680;28;20045;-78
2022/10/23 02:29:52;;;;;;;43.55;16.88;;;;;;;8.06;100.00;101074.13;10320634;28;20045;-78
2022/10/23 02:34:52;;;;;;;34.10;15.43;;;;;;;8.10;100.00;101075.25;10360624;28;20609;-78
2022/10/23 02:39:53;;;;;;;28.52;14.52;;;;;;;8.12;100.00;101074.50;10359573;28;20042;-78
2022/10/23 02:45:09;;;;;;;24.65;13.10;;;;;;;8.12;100.00;101058.88;10359392;28;20122;-77
2022/10/23 02:50:27;;;;;;;25.00;15.30;;;;;;;8.13;100.00;101049.34;10361434;28;20427;-78
2022/10/23 02:55:46;;;;;;;31.63;16.27;;;;;;;8.16;100.00;101042.59;10361156;28;20187;-79
2022/10/23 03:00:52;;;;;;;20.88;10.15;;;;;;;8.30;100.00;101029.50;10304367;28;20058;-78
2022/10/23 03:05:53;;;;;;;31.52;12.32;;;;;;;8.44;100.00;101022.50;10304440;28;20054;-78
2022/10/23 03:10:53;;;;;;;46.80;16.52;;;;;;;8.52;100.00;101021.28;10342882;28;20050;-78
2022/10/23 03:15:54;;;;;;;39.72;12.10;;;;;;;8.63;100.00;101012.38;10360535;28;20046;-79
2022/10/23 03:20:55;;;;;;;27.10;14.02;;;;;;;8.59;100.00;100999.94;10359198;28;20234;-78
2022/10/23 03:25:56;;;;;;;30.98;13.07;;;;;;;8.60;100.00;100985.19;10355938;28;20490;-78
2022/10/23 03:30:56;;;;;;;23.77;11.15;;;;;;;8.70;100.00;100994.44;10335044;28;20129;-78
2022/10/23 03:35:57;;;;;;;22.92;11.10;;;;;;;8.78;100.00;100983.63;10343101;28;20054;-78
2022/10/23 03:40:57;;;;;;;38.45;11.45;;;;;;;8.72;100.00;100983.28;10336062;28;20057;-78
2022/10/23 03:45:58;;;;;;;30.27;13.25;;;;;;;8.72;100.00;100980.66;10359099;28;20041;-78
2022/10/23 03:50:58;;;;;;;28.27;11.82;;;;;;;8.71;100.00;100985.81;10357786;28;20053;-79
2022/10/23 03:55:59;;;;;;;23.40;11.02;;;;;;;8.69;100.00;100983.09;10358287;28;20042;-78
2022/10/23 04:00:59;;;;;;;21.30;11.60;;;;;;;8.72;100.00;100977.19;10354607;28;20111;-78
2022/10/23 04:06:00;;;;;;;14.80;9.02;;;;;;;8.72;100.00;100967.63;10337988;28;20046;-78
2022/10/23 04:11:01;;;;;;;19.83;8.40;;;;;;;8.76;100.00;100953.06;10337375;28;20053;-78
2022/10/23 04:16:01;;;;;;;24.77;10.55;;;;;;;8.92;100.00;100933.91;10340216;28;20046;-78
2022/10/23 04:21:02;;;;;;;23.75;9.35;;;;;;;9.01;100.00;100925.72;10339901;28;20471;-78
2022/10/23 04:26:03;;;;;;;19.73;9.60;;;;;;;9.06;100.00;100925.13;10321988;28;20077;-78
2022/10/23 04:31:03;;;;;;;29.20;9.90;;;;;;;9.21;100.00;100921.56;10357623;28;20393;-79
2022/10/23 04:36:04;;;;;;;21.38;9.50;;;;;;;9.25;100.00;100911.38;10357751;28;20080;-78
2022/10/23 04:41:05;;;;;;;23.23;8.23;;;;;;;9.25;100.00;100916.59;10366138;28;20034;-79
2022/10/23 04:46:06;;;;;;;32.13;8.98;;;;;;;9.31;100.00;100918.63;10358302;28;20523;-78
2022/10/23 04:51:07;;;;;;;21.25;8.02;;;;;;;9.36;100.00;100924.09;10345975;28;20054;-78
2022/10/23 04:56:11;;;;;;;24.55;8.70;;;;;;;9.34;100.00;100908.34;10339071;28;20125;-77
2022/10/23 05:01:12;;;;;;;28.00;9.93;;;;;;;9.46;100.00;100905.50;10345757;28;20038;-77
2022/10/23 05:06:12;;;;;;;22.73;8.57;;;;;;;9.46;100.00;100904.56;10362762;28;20124;-78
2022/10/23 05:11:13;;;;;;;17.42;8.18;;;;;;;9.61;100.00;100894.94;10364629;28;20532;-78
2022/10/23 05:16:37;;;;;;;20.42;8.88;;;;;;;9.63;100.00;100895.91;10357848;28;20060;-77
2022/10/23 05:21:38;;;;;;;18.52;8.68;;;;;;;9.53;100.00;100889.31;10358418;28;20049;-77
2022/10/23 05:26:38;;;;;;;41.25;10.00;;;;;;;9.37;100.00;100895.44;10358317;28;20048;-79
2022/10/23 05:31:39;;;;;;;18.52;8.73;;;;;;;9.27;100.00;100890.53;10356301;28;20041;-77
2022/10/23 05:36:40;;;;;;;66.18;15.85;;;;;;;9.18;100.00;100890.97;10358361;28;20045;-80
2022/10/23 05:41:40;;;;;;;83.93;14.50;;;;;;;9.16;100.00;100889.06;10359717;28;20046;-79
2022/10/23 05:46:41;;;;;;;16.00;9.77;;;;;;;9.14;100.00;100877.66;10359397;28;20053;-80
2022/10/23 05:51:42;;;;;;;23.90;10.68;;;;;;;9.12;100.00;100877.59;10359793;28;20042;-79
2022/10/23 05:56:42;;;;;;;27.10;9.93;;;;;;;9.15;100.00;100880.34;10358996;28;20048;-79
2022/10/23 06:01:43;;;;;;;82.38;18.08;;;;;;;9.09;100.00;100870.47;10360115;28;20038;-79
2022/10/23 06:06:45;;;;;;;19.52;10.75;;;;;;;9.12;100.00;100867.13;10354954;28;20042;-78
2022/10/23 06:11:49;;;;;;;19.88;7.68;;;;;;;9.11;100.00;100850.56;10342774;28;20395;-78
2022/10/23 06:16:49;;;;;;;24.02;9.00;;;;;;;9.09;100.00;100862.63;10335841;28;20140;-78
2022/10/23 06:21:50;;;;;;;21.83;11.07;;;;;;;9.09;100.00;100852.19;10354426;28;20072;-78
2022/10/23 06:26:50;;;;;;;22.90;8.63;;;;;;;9.19;100.00;100842.22;10355384;28;20117;-79
2022/10/23 06:31:51;;;;;;;20.25;8.25;;;;;;;9.23;100.00;100836.34;10356394;28;20042;-78
2022/10/23 06:36:51;;;;;;;27.15;10.10;;;;;;;9.28;100.00;100840.09;10359745;28;20095;-77
2022/10/23 06:41:52;;;;;;;17.40;7.30;;;;;;;9.37;100.00;100834.47;10359175;28;20038;-79
2022/10/23 06:46:52;;;;;;;23.48;10.10;;;;;;;9.49;100.00;100837.72;10353973;28;20130;-79
2022/10/23 06:51:54;;;;;;;32.42;12.07;;;;;;;9.55;100.00;100827.59;10355861;28;20131;-78
2022/10/23 06:56:54;;;;;;;23.50;8.77;;;;;;;9.66;100.00;100822.91;10354219;28;20053;-79
2022/10/23 07:01:54;;;;;;;22.40;8.52;;;;;;;9.82;100.00;100829.81;10355342;28;20115;-81
2022/10/23 07:06:56;;;;;;;27.42;11.48;;;;;;;10.02;100.00;100821.13;10340847;28;20061;-77
2022/10/23 07:11:56;;;;;;;25.48;10.60;;;;;;;10.16;100.00;100809.63;10338273;28;20049;-80
2022/10/23 07:16:57;;;;;;;17.02;10.70;;;;;;;10.45;100.00;100799.69;10356812;28;20116;-82
2022/10/23 07:21:58;;;;;;;34.40;9.48;;;;;;;10.65;100.00;100811.13;10354597;28;20098;-80
2022/10/23 07:27:01;;;;;;;23.05;8.60;;;;;;;10.84;100.00;100802.38;10350730;28;20038;-82
2022/10/23 07:32:03;;;;;;;18.73;8.60;;;;;;;11.09;100.00;100802.59;10340064;28;20069;-81
2022/10/23 07:37:04;;;;;;;20.67;10.05;;;;;;;11.30;100.00;100797.38;10355286;28;20418;-79
2022/10/23 07:42:04;;;;;;;23.52;9.60;;;;;;;11.53;100.00;100790.53;10354687;28;20164;-78
2022/10/23 07:47:05;;;;;;;19.15;8.55;;;;;;;11.84;100.00;100783.94;10356469;28;20390;-80
2022/10/23 07:52:07;;;;;;;15.45;9.63;;;;;;;12.12;100.00;100789.44;10339778;28;20046;-77
2022/10/23 07:57:10;;;;;;;12.48;7.90;;;;;;;12.31;100.00;100794.56;10355527;28;20066;-77
2022/10/23 08:02:14;;;;;;;16.40;8.48;;;;;;;12.50;100.00;100787.41;10325923;28;20037;-77
2022/10/23 08:07:14;;;;;;;11.63;5.85;;;;;;;12.71;100.00;100794.31;10353105;28;20041;-78
2022/10/23 08:12:16;;;;;;;17.10;7.07;;;;;;;12.81;100.00;100793.84;10353943;28;20034;-77
2022/10/23 08:17:17;;;;;;;14.82;7.35;;;;;;;12.73;100.00;100787.41;10363736;28;20129;-77
2022/10/23 08:22:18;;;;;;;35.55;17.25;;;;;;;12.83;100.00;100779.03;10361831;28;20045;-79
2022/10/23 08:27:18;;;;;;;15.43;6.15;;;;;;;12.92;100.00;100792.50;10343446;28;20038;-77
2022/10/23 08:32:19;;;;;;;12.48;7.70;;;;;;;13.30;100.00;100772.81;10362174;28;20048;-77
2022/10/23 08:37:19;;;;;;;23.95;9.07;;;;;;;13.57;100.00;100757.13;10365804;28;20061;-76
2022/10/23 08:42:24;;;;;;;10.60;5.05;;;;;;;13.73;100.00;100750.63;10363072;28;20067;-77
2022/10/23 08:47:42;;;;;;;11.65;4.38;;;;;;;13.92;100.00;100740.69;10346735;28;20048;-84
2022/10/23 08:52:47;;;;;;;6.35;3.85;;;;;;;14.13;100.00;100729.97;10347227;28;20379;-78
2022/10/23 08:58:14;;;;;;;9.82;3.17;;;;;;;14.41;100.00;100725.53;10345457;28;20041;-77
2022/10/23 09:03:15;;;;;;;9.70;3.38;;;;;;;14.63;100.00;100724.41;10360652;28;20518;-77
2022/10/23 09:08:27;;;;;;;5.25;3.38;;;;;;;14.89;100.00;100710.25;10345269;28;20050;-78
2022/10/23 09:13:34;;;;;;;10.18;3.35;;;;;;;15.07;100.00;100704.56;10362951;28;20061;-78
2022/10/23 09:18:35;;;;;;;10.60;3.50;;;;;;;15.25;100.00;100707.69;10360848;28;20034;-77
2022/10/23 09:23:35;;;;;;;17.77;3.40;;;;;;;15.38;100.00;100693.06;10345775;28;20129;-78
2022/10/23 09:28:50;;;;;;;7.45;2.97;;;;;;;15.39;99.65;100688.69;10362948;28;20040;-78
2022/10/23 09:33:58;;;;;;;10.02;2.95;;;;;;;15.38;98.73;100671.97;10362692;28;20042;-80
2022/10/23 09:38:59;;;;;;;10.07;3.63;;;;;;;15.34;100.00;100670.13;10343869;28;20849;-77
2022/10/23 09:44:22;;;;;;;9.50;2.90;;;;;;;15.30;98.47;100663.00;10325398;28;20069;-78
2022/10/23 09:49:30;;;;;;;6.95;2.47;;;;;;;15.45;97.51;100651.03;10354569;28;20049;-78
2022/10/23 09:54:37;;;;;;;12.70;3.08;;;;;;;15.60;97.02;100650.50;10340061;28;20034;-79
2022/10/23 09:59:37;;;;;;;5.28;3.05;;;;;;;15.89;92.07;100639.75;10348275;28;20503;-80
2022/10/23 10:04:39;;;;;;;5.78;2.47;;;;;;;16.00;91.65;100633.88;10320505;28;20117;-78
2022/10/23 10:09:39;;;;;;;12.80;3.05;;;;;;;16.03;90.35;100633.03;10340368;28;20050;-79
2022/10/23 10:15:06;;;;;;;4.97;2.17;;;;;;;15.96;91.01;100629.38;10360054;28;20121;-80
2022/10/23 10:20:26;;;;;;;6.93;2.50;;;;;;;15.80;92.68;100607.00;10358979;28;20045;-79
2022/10/23 10:25:45;;;;;;;5.95;2.53;;;;;;;15.59;93.43;100606.50;10348918;28;20173;-79
2022/10/23 10:30:48;;;;;;;8.73;3.72;;;;;;;15.45;93.70;100611.47;10316751;28;20100;-80
2022/10/23 10:35:56;;;;;;;6.03;2.30;;;;;;;15.51;93.99;100599.31;10343960;28;20046;-79
2022/10/23 10:41:27;;;;;;;9.15;2.63;;;;;;;15.83;93.93;100593.00;10319637;28;20049;-79
2022/10/23 10:46:39;;;;;;;7.40;2.65;;;;;;;16.27;93.12;100593.06;10357058;28;20501;-78
2022/10/23 10:51:53;;;;;;;6.97;2.30;;;;;;;16.82;90.12;100584.38;10342236;28;20046;-79
2022/10/23 10:56:54;;;;;;;8.82;2.45;;;;;;;16.81;87.57;100563.19;10353082;28;20462;-80
2022/10/23 11:02:19;;;;;;;8.60;2.95;;;;;;;16.56;90.05;100568.03;10502500;27;20133;-79
2022/10/23 11:07:21;;;;;;;6.90;2.20;;;;;;;16.22;89.68;100563.03;10419703;28;20414;-78
2022/10/23 11:12:26;;;;;;;4.85;2.80;;;;;;;16.42;90.89;100566.03;10431774;28;20045;-79
2022/10/23 11:17:32;;;;;;;14.80;3.45;;;;;;;16.61;89.67;100524.09;10401800;28;20048;-79
2022/10/23 11:22:37;;;;;;;5.82;1.77;;;;;;;16.76;88.46;100531.44;10402513;28;20049;-79
2022/10/23 11:27:45;;;;;;;4.88;2.30;;;;;;;17.58;85.87;100530.03;10389820;28;20116;-81
2022/10/23 11:33:10;;;;;;;9.30;3.28;;;;;;;19.20;77.43;100526.41;10412155;28;20083;-81
2022/10/23 11:38:18;;;;;;;2.58;2.00;;;;;;;20.71;68.69;100517.22;10411496;28;20041;-79
2022/10/23 11:43:33;;;;;;;5.10;1.50;;;;;;;20.41;70.11;100494.16;10446079;28;20547;-81
2022/10/23 11:48:41;;;;;;;8.90;1.80;;;;;;;20.28;67.57;100491.50;10450453;28;20037;-79
2022/10/23 11:53:42;;;;;;;2.90;1.58;;;;;;;20.01;68.29;100497.63;10448155;28;20514;-78
2022/10/23 11:58:45;;;;;;;6.00;2.03;;;;;;;20.23;69.68;100478.19;10447145;28;20128;-81
2022/10/23 12:04:25;;;;;;;12.38;2.78;;;;;;;20.12;69.51;100458.69;10456894;28;20033;-80
2022/10/23 12:09:39;;;;;;;9.50;2.63;;;;;;;19.25;71.94;100470.75;10393489;28;20042;-77
2022/10/23 12:14:49;;;;;;;3.05;1.58;;;;;;;18.93;74.06;100464.31;10392870;28;20044;-77
2022/10/23 12:20:01;;;;;;;9.63;2.10;;;;;;;19.05;73.86;100461.78;10459767;28;20500;-78
2022/10/23 12:25:03;;;;;;;10.88;2.83;;;;;;;19.32;76.55;100457.50;10434311;28;20103;-78
2022/10/23 12:30:16;;;;;;;5.20;2.15;;;;;;;19.41;73.00;100461.97;10433676;28;20040;-78
2022/10/23 12:35:17;;;;;;;10.27;2.67;;;;;;;19.30;73.56;100453.94;10444060;28;20049;-77
2022/10/23 12:40:17;;;;;;;9.15;4.03;;;;;;;19.31;71.46;100433.63;10445794;28;20040;-77
2022/10/23 12:45:20;;;;;;;7.75;2.53;;;;;;;19.43;72.32;100422.16;10442454;28;20124;-78
2022/10/23 12:50:23;;;;;;;11.02;3.15;;;;;;;19.38;71.48;100424.81;10427763;28;20033;-79
2022/10/23 12:55:25;;;;;;;4.70;1.80;;;;;;;19.05;74.04;100423.78;10425677;28;20087;-79
2022/10/23 13:00:25;;;;;;;8.25;3.10;;;;;;;18.78;75.46;100412.94;10391801;28;20037;-79
2022/10/23 13:05:26;;;;;;;15.73;4.60;;;;;;;18.77;79.69;100407.66;10425648;28;20413;-79
2022/10/23 13:10:26;;;;;;;6.40;2.85;;;;;;;18.56;79.16;100400.44;10406238;28;20041;-78
2022/10/23 13:15:41;;;;;;;9.20;2.70;;;;;;;18.57;78.40;100402.22;10399895;28;20112;-79
2022/10/23 13:21:02;;;;;;;9.63;2.17;;;;;;;18.69;77.93;100388.16;10416173;28;20045;-79
2022/10/23 13:26:23;;;;;;;10.32;3.20;;;;;;;18.86;78.12;100361.75;10400817;28;20041;-78
2022/10/23 13:31:26;;;;;;;8.02;3.20;;;;;;;19.08;79.18;100360.13;10421758;28;20041;-79
2022/10/23 13:36:28;;;;;;;5.95;2.92;;;;;;;18.98;79.80;100366.28;10442368;28;20378;-79
2022/10/23 13:41:42;;;;;;;6.68;2.47;;;;;;;18.81;79.49;100359.09;10425375;28;20036;-80
2022/10/23 13:46:42;;;;;;;8.57;2.45;;;;;;;18.71;78.66;100346.66;10443181;28;20514;-80
2022/10/23 13:51:48;;;;;;;9.27;2.67;;;;;;;18.71;79.39;100344.00;10441589;28;20037;-78
2022/10/23 13:56:49;;;;;;;8.13;2.92;;;;;;;18.71;81.82;100350.19;10385399;28;20048;-79
2022/10/23 14:01:50;;;;;;;5.63;2.50;;;;;;;18.67;80.15;100337.78;10394754;28;20045;-79
2022/10/23 14:06:57;;;;;;;10.15;2.25;;;;;;;18.70;79.09;100339.59;10424577;28;20046;-78
2022/10/23 14:11:57;;;;;;;6.43;2.22;;;;;;;19.03;78.74;100322.09;10410129;28;20124;-79
2022/10/23 14:16:58;;;;;;;3.70;2.13;;;;;;;18.95;78.49;100324.69;10392640;28;20052;-79
2022/10/23 14:21:58;;;;;;;12.50;2.88;;;;;;;18.62;79.96;100337.78;10400192;28;20183;-79
2022/10/23 14:26:59;;;;;;;4.95;2.47;;;;;;;18.26;81.05;100328.69;10391878;28;20095;-79
2022/10/23 14:32:02;;;;;;;22.48;5.88;;;;;;;18.01;87.44;100317.00;10391388;28;20099;-79
2022/10/23 14:37:03;;;;;;;21.70;4.45;;;;;;;17.64;90.79;100343.09;10397289;28;20056;-79
2022/10/23 14:42:03;;;;;;;10.13;2.75;;;;;;;17.37;90.49;100348.13;10404344;28;20124;-79
2022/10/23 14:47:04;;;;;;;5.28;2.70;;;;;;;17.24;91.42;100311.84;10446001;28;20056;-78
2022/10/23 14:52:04;;;;;;;4.90;2.58;;;;;;;17.02;93.30;100307.16;10399748;28;20049;-79
2022/10/23 14:57:05;;;;;;;8.70;3.00;;;;;;;16.84;93.82;100309.53;10395335;28;20140;-80
2022/10/23 15:02:06;;;;;;;16.17;3.60;;;;;;;16.64;97.77;100309.28;10407713;28;20050;-80
2022/10/23 15:07:06;;;;;;;11.50;3.25;;;;;;;16.41;100.00;100294.88;10377689;28;20553;-80
2022/10/23 15:12:07;;;;;;;8.82;3.80;;;;;;;16.41;99.71;100292.25;10386931;28;20041;-80
2022/10/23 15:17:07;;;;;;;11.75;5.22;;;;;;;16.43;100.00;100284.34;10378849;28;20046;-79
2022/10/23 15:22:08;;;;;;;10.32;2.92;;;;;;;16.44;98.43;100289.63;10397893;28;20044;-79
2022/10/23 15:27:08;;;;;;;6.28;2.88;;;;;;;16.43;97.78;100289.63;10392385;28;20042;-80
2022/10/23 15:32:09;;;;;;;15.30;3.70;;;;;;;16.44;98.69;100297.56;10400179;28;20059;-80
2022/10/23 15:37:10;;;;;;;19.45;3.70;;;;;;;16.42;99.59;100312.50;10366544;28;20029;-79
2022/10/23 15:42:11;;;;;;;19.58;4.78;;;;;;;16.23;99.66;100307.81;10396075;28;20498;-80
2022/10/23 15:47:11;;;;;;;10.38;3.00;;;;;;;16.21;98.03;100294.59;10417270;28;20039;-80
2022/10/23 15:52:12;;;;;;;11.40;3.17;;;;;;;16.23;97.08;100276.13;10392858;28;20037;-79
2022/10/23 15:57:17;;;;;;;9.50;3.42;;;;;;;16.45;93.28;100264.13;10428582;28;20557;-81
2022/10/23 16:02:21;;;;;;;10.90;3.65;;;;;;;16.42;94.66;100225.34;10408712;28;20055;-81
2022/10/23 16:07:39;;;;;;;13.55;3.22;;;;;;;16.25;97.11;100155.59;10434803;28;20049;-82
2022/10/23 16:12:48;;;;;;;7.82;3.50;;;;;;;15.73;100.00;100151.31;10402162;28;20045;-81
2022/10/23 16:17:54;;;;;;;8.18;3.22;;;;;;;15.56;100.00;100173.03;10403640;28;20037;-81
2022/10/23 16:23:01;;;;;;;20.30;4.50;;;;;;;15.45;100.00;100194.84;10386665;28;20563;-81
2022/10/23 16:28:06;;;;;;;6.20;3.83;;;;;;;15.25;100.00;100211.19;10396789;28;20508;-82
2022/10/23 16:33:08;;;;;;;13.68;6.57;;;;;;;15.24;100.00;100212.94;10440840;28;20496;-79
2022/10/23 16:38:09;;;;;;;5.78;3.38;;;;;;;15.10;100.00;100204.78;10425339;28;20129;-78
2022/10/23 16:43:09;;;;;;;9.93;4.05;;;;;;;15.21;100.00;100204.09;10411312;28;20124;-80
2022/10/23 16:48:10;;;;;;;12.40;3.55;;;;;;;15.16;100.00;100203.13;10404088;28;20168;-79
2022/10/23 16:53:10;;;;;;;13.40;5.55;;;;;;;15.09;100.00;100229.38;10405038;28;20560;-80
2022/10/23 16:58:11;;;;;;;13.00;4.57;;;;;;;15.22;100.00;100234.88;10402419;28;20454;-80
2022/10/23 17:03:11;;;;;;;11.65;4.25;;;;;;;15.17;100.00;100218.94;10405182;28;20192;-80
2022/10/23 17:08:12;;;;;;;23.98;4.85;;;;;;;15.13;100.00;100232.94;10404439;28;20090;-80
2022/10/23 17:13:12;;;;;;;10.85;4.57;;;;;;;15.12;100.00;100221.50;10401117;28;20128;-80
2022/10/23 17:18:13;;;;;;;10.75;4.70;;;;;;;15.10;100.00;100235.50;10432226;28;20037;-80
2022/10/23 17:23:14;;;;;;;14.95;4.88;;;;;;;15.20;100.00;100239.22;10414621;28;20045;-80
2022/10/23 17:28:14;;;;;;;10.75;5.07;;;;;;;15.23;100.00;100242.78;10423033;28;20029;-80
2022/10/23 17:33:15;;;;;;;16.20;4.60;;;;;;;15.24;100.00;100249.84;10425984;28;20597;-79
2022/10/23 17:38:16;;;;;;;32.38;6.72;;;;;;;15.11;100.00;100246.09;10400200;28;20446;-80
2022/10/23 17:43:17;;;;;;;14.43;5.32;;;;;;;15.07;100.00;100241.63;10401156;28;20041;-82
2022/10/23 17:48:17;;;;;;;10.48;3.83;;;;;;;15.20;100.00;100245.38;10419308;28;20115;-79
2022/10/23 17:53:18;;;;;;;15.38;5.28;;;;;;;15.15;100.00;100241.75;10398407;28;20124;-79
2022/10/23 17:58:18;;;;;;;11.27;5.18;;;;;;;15.09;100.00;100236.38;10399138;28;20095;-79
2022/10/23 18:03:19;;;;;;;14.02;5.10;;;;;;;15.06;100.00;100224.03;10405405;28;20045;-79
2022/10/23 18:08:19;;;;;;;11.45;4.93;;;;;;;15.01;100.00;100225.69;10399570;28;20125;-78
2022/10/23 18:13:20;;;;;;;18.83;4.45;;;;;;;15.02;100.00;100231.84;10383951;28;20090;-79
2022/10/23 18:18:20;;;;;;;10.68;3.17;;;;;;;14.96;100.00;100228.22;10430246;28;20052;-79
2022/10/23 18:23:21;;;;;;;6.80;3.33;;;;;;;14.96;100.00;100244.03;10411457;28;20073;-81
2022/10/23 18:28:22;;;;;;;35.35;6.03;;;;;;;14.96;100.00;100235.25;10409147;28;20584;-79
2022/10/23 18:33:22;;;;;;;10.55;4.68;;;;;;;14.97;100.00;100234.41;10403436;28;20064;-79
2022/10/23 18:38:23;;;;;;;8.60;3.60;;;;;;;14.96;100.00;100241.41;10382992;28;20068;-79
2022/10/23 18:43:23;;;;;;;12.10;3.33;;;;;;;15.04;100.00;100209.03;10417847;28;20531;-79
2022/10/23 18:48:24;;;;;;;8.75;4.10;;;;;;;15.12;99.44;100210.06;10387901;28;20187;-79
2022/10/23 18:53:25;;;;;;;10.35;2.45;;;;;;;15.13;99.32;100211.84;10404141;28;20516;-78
2022/10/23 18:58:26;;;;;;;7.22;2.55;;;;;;;15.12;98.34;100212.69;10397971;28;20037;-78
2022/10/23 19:03:26;;;;;;;5.57;2.00;;;;;;;14.94;98.01;100219.41;10401150;28;20068;-79
2022/10/23 19:08:27;;;;;;;6.72;2.67;;;;;;;14.88;98.21;100221.91;10416816;28;20052;-82
2022/10/23 19:13:28;;;;;;;12.00;2.67;;;;;;;14.95;98.36;100221.19;10379926;28;20048;-82
2022/10/23 19:18:28;;;;;;;6.60;2.83;;;;;;;14.87;98.19;100220.13;10384788;28;20052;-80
2022/10/23 19:23:29;;;;;;;13.48;3.55;;;;;;;14.76;97.63;100225.22;10445917;28;20120;-80
2022/10/23 19:28:31;;;;;;;10.98;2.17;;;;;;;14.61;99.51;100216.97;10430916;28;20084;-80
2022/10/23 19:33:34;;;;;;;9.18;2.85;;;;;;;14.65;98.88;100217.03;10424395;28;20065;-79
2022/10/23 19:38:35;;;;;;;9.02;2.78;;;;;;;14.79;100.00;100233.19;10396321;28;20049;-83
2022/10/23 19:43:41;;;;;;;10.70;2.78;;;;;;;14.63;100.00;100236.31;10389494;28;20567;-81
2022/10/23 19:48:43;;;;;;;32.22;6.22;;;;;;;14.49;100.00;100230.75;10422431;28;20576;-83
2022/10/23 19:53:44;;;;;;;18.95;3.63;;;;;;;14.26;100.00;100253.94;10411937;28;20034;-82
2022/10/23 19:58:45;;;;;;;9.82;3.22;;;;;;;14.05;100.00;100263.13;10419072;28;20124;-81
2022/10/23 20:03:47;;;;;;;8.88;3.15;;;;;;;13.92;100.00;100277.69;10420851;28;20037;-81
2022/10/23 20:08:48;;;;;;;9.40;3.38;;;;;;;13.91;100.00;100281.19;10439130;28;20391;-82
2022/10/23 20:13:48;;;;;;;9.55;2.55;;;;;;;14.08;100.00;100276.34;10422614;28;20075;-81
2022/10/23 20:18:49;;;;;;;6.10;2.58;;;;;;;14.50;100.00;100283.44;10428779;28;20037;-79
2022/10/23 20:23:52;;;;;;;7.97;2.53;;;;;;;14.53;100.00;100307.22;10418832;28;20049;-80
2022/10/23 20:28:53;;;;;;;9.18;2.90;;;;;;;14.41;100.00;100325.38;10392391;28;20069;-79
2022/10/23 20:33:54;;;;;;;9.13;4.30;;;;;;;14.37;100.00;100319.13;10397416;28;20042;-78
2022/10/23 20:38:57;;;;;;;8.60;2.58;;;;;;;14.36;100.00;100303.31;10389681;28;20109;-78
2022/10/23 20:43:58;;;;;;;8.30;2.90;;;;;;;14.12;100.00;100303.59;10407786;28;20132;-77
2022/10/23 20:48:59;;;;;;;10.52;3.03;;;;;;;13.93;100.00;100314.59;10407606;28;20128;-77
2022/10/23 20:54:00;;;;;;;10.93;3.05;;;;;;;13.48;100.00;100315.16;10422265;28;20025;-78
2022/10/23 20:59:09;;;;;;;11.70;2.90;;;;;;;13.12;100.00;100323.78;10429804;28;20060;-79
2022/10/23 21:04:11;;;;;;;6.43;2.72;;;;;;;12.93;100.00;100329.38;10414635;28;20433;-77
2022/10/23 21:09:11;;;;;;;12.23;2.55;;;;;;;12.78;100.00;100336.78;10403252;28;20040;-77
2022/10/23 21:14:12;;;;;;;14.10;3.45;;;;;;;12.73;100.00;100327.88;10402382;28;20125;-78
2022/10/23 21:19:14;;;;;;;14.38;3.25;;;;;;;12.71;100.00;100322.59;10441252;28;20036;-80
2022/10/23 21:24:15;;;;;;;;;;;;;;;12.64;100.00;100320.63;10426656;28;20524;-80
2022/10/23 21:29:15;;;;;;;9.18;3.38;;;;;;;12.52;100.00;100320.25;10406186;28;19932;-81
2022/10/23 21:34:16;;;;;;;11.63;3.67;;;;;;;12.39;100.00;100314.63;10402079;28;20120;-79
2022/10/23 21:39:16;;;;;;;11.35;3.78;;;;;;;12.32;100.00;100313.53;10408327;28;20124;-79
2022/10/23 21:44:17;;;;;;;11.15;3.65;;;;;;;12.43;100.00;100323.47;10401963;28;20059;-79
2022/10/23 21:49:17;;;;;;;16.35;3.08;;;;;;;12.51;100.00;100310.59;10438451;28;20131;-79
2022/10/23 21:54:18;;;;;;;13.15;3.95;;;;;;;12.79;100.00;100328.06;10429079;28;20615;-80
2022/10/23 21:59:20;;;;;;;15.05;3.20;;;;;;;12.74;100.00;100324.41;10438809;28;20048;-80
2022/10/23 22:04:21;;;;;;;16.40;3.60;;;;;;;12.80;100.00;100311.47;10425893;28;20045;-81
2022/10/23 22:09:21;;;;;;;12.23;3.22;;;;;;;12.82;100.00;100307.16;10387674;28;20073;-80
2022/10/23 22:14:22;;;;;;;9.55;3.88;;;;;;;12.71;100.00;100319.97;10382810;28;20088;-80
2022/10/23 22:19:23;;;;;;;9.90;3.60;;;;;;;12.78;100.00;100313.16;10436284;28;20086;-80
2022/10/23 22:24:23;;;;;;;9.15;4.20;;;;;;;12.67;100.00;100301.44;10412581;28;20038;-79
2022/10/23 22:29:26;;;;;;;16.27;2.65;;;;;;;12.57;100.00;100298.53;10435951;28;20040;-79
2022/10/23 22:34:27;;;;;;;11.10;3.95;;;;;;;12.60;100.00;100301.25;10441559;28;20043;-80
2022/10/23 22:39:28;;;;;;;15.93;3.70;;;;;;;12.65;100.00;100303.13;10403515;28;20052;-79
2022/10/23 22:44:29;;;;;;;13.13;4.50;;;;;;;12.50;100.00;100291.31;10404338;28;20106;-78
2022/10/23 22:49:29;;;;;;;15.27;4.53;;;;;;;12.45;100.00;100288.56;10420927;28;20121;-79
2022/10/23 22:54:30;;;;;;;16.38;4.80;;;;;;;12.63;100.00;100289.97;10404951;28;20045;-79